createdAt,value
2018-05-15T00:02:03.837Z,13.70
2018-05-15T00:04:31.371Z,13.70
2018-05-15T00:06:58.891Z,13.60
2018-05-15T00:09:26.420Z,13.60
2018-05-15T00:11:53.936Z,13.50
2018-05-15T00:14:21.454Z,13.40
2018-05-15T00:16:48.978Z,13.30
2018-05-15T00:19:16.533Z,13.20
2018-05-15T00:21:44.086Z,13.10
2018-05-15T00:24:11.618Z,13.10
2018-05-15T00:26:39.165Z,13.20
2018-05-15T00:29:06.716Z,13.20
2018-05-15T00:31:34.283Z,13.30
2018-05-15T00:34:01.804Z,13.40
2018-05-15T00:36:29.318Z,13.20
2018-05-15T00:38:56.858Z,13.10
2018-05-15T00:41:24.378Z,13.20
2018-05-15T00:43:51.934Z,13.20
2018-05-15T00:46:19.482Z,13.20
2018-05-15T00:48:46.989Z,13.10
2018-05-15T00:51:14.531Z,13.10
2018-05-15T00:53:42.084Z,12.90
2018-05-15T00:56:09.635Z,13.00
2018-05-15T00:58:37.153Z,12.90
2018-05-15T01:01:05.459Z,12.90
2018-05-15T01:03:32.998Z,12.90
2018-05-15T01:06:00.547Z,12.90
2018-05-15T01:08:28.884Z,12.70
2018-05-15T01:10:56.423Z,12.70
2018-05-15T01:13:23.936Z,12.70
2018-05-15T01:15:52.223Z,12.70
2018-05-15T01:18:20.527Z,12.60
2018-05-15T01:20:48.068Z,12.60
2018-05-15T01:23:15.610Z,12.50
2018-05-15T01:25:43.902Z,12.50
2018-05-15T01:28:11.468Z,12.50
2018-05-15T01:30:39.017Z,12.50
2018-05-15T01:33:07.319Z,12.40
2018-05-15T01:35:34.858Z,12.30
2018-05-15T01:38:02.421Z,12.50
2018-05-15T01:40:29.963Z,12.40
2018-05-15T01:42:57.488Z,12.30
2018-05-15T01:45:25.054Z,12.30
2018-05-15T01:47:52.606Z,12.30
2018-05-15T01:50:20.161Z,12.20
2018-05-15T01:52:47.665Z,12.00
2018-05-15T01:55:15.182Z,12.20
2018-05-15T01:57:42.742Z,12.10
2018-05-15T02:00:10.284Z,12.10
2018-05-15T02:02:37.842Z,12.00
2018-05-15T02:05:05.397Z,12.00
2018-05-15T02:07:32.922Z,12.00
2018-05-15T02:10:00.467Z,11.80
2018-05-15T02:12:27.982Z,11.80
2018-05-15T02:14:55.536Z,11.80
2018-05-15T02:17:23.063Z,11.90
2018-05-15T02:19:50.579Z,11.80
2018-05-15T02:22:18.126Z,11.80
2018-05-15T02:24:45.663Z,11.60
2018-05-15T02:27:13.186Z,11.90
2018-05-15T02:29:40.716Z,12.00
2018-05-15T02:32:08.246Z,11.90
2018-05-15T02:34:35.775Z,11.80
2018-05-15T02:37:03.327Z,11.70
2018-05-15T02:39:30.885Z,11.60
2018-05-15T02:41:58.446Z,11.70
2018-05-15T02:44:26.005Z,11.60
2018-05-15T02:46:53.539Z,11.60
2018-05-15T02:49:21.100Z,11.50
2018-05-15T02:51:48.631Z,11.40
2018-05-15T02:54:16.182Z,11.40
2018-05-15T02:56:43.723Z,11.30
2018-05-15T02:59:11.248Z,11.40
2018-05-15T03:01:38.804Z,11.40
2018-05-15T03:04:06.323Z,11.40
2018-05-15T03:06:33.896Z,11.30
2018-05-15T03:09:02.211Z,11.20
2018-05-15T03:11:29.735Z,11.20
2018-05-15T03:13:57.280Z,11.40
2018-05-15T03:16:25.516Z,11.40
2018-05-15T03:18:53.072Z,11.50
2018-05-15T03:21:20.593Z,11.40
2018-05-15T03:23:48.143Z,11.40
2018-05-15T03:26:16.446Z,11.20
2018-05-15T03:28:43.968Z,11.20
2018-05-15T03:31:11.489Z,11.00
2018-05-15T03:33:39.002Z,11.20
2018-05-15T03:36:07.282Z,10.90
2018-05-15T03:38:35.577Z,11.10
2018-05-15T03:41:03.099Z,11.10
2018-05-15T03:43:30.614Z,11.20
2018-05-15T03:45:58.228Z,11.30
2018-05-15T03:48:25.748Z,11.10
2018-05-15T03:50:53.296Z,11.40
2018-05-15T03:53:20.817Z,11.10
2018-05-15T03:55:48.343Z,11.20
2018-05-15T03:58:15.876Z,11.30
2018-05-15T04:00:55.330Z,11.30
2018-05-15T04:03:34.654Z,11.10
2018-05-15T04:06:14.112Z,11.20
2018-05-15T04:08:41.735Z,11.40
2018-05-15T04:11:09.245Z,11.30
2018-05-15T04:13:37.545Z,11.20
2018-05-15T04:16:05.091Z,11.20
2018-05-15T04:18:32.634Z,11.30
2018-05-15T04:21:00.943Z,11.30
2018-05-15T04:23:28.494Z,11.30
2018-05-15T04:25:56.110Z,11.10
2018-05-15T04:28:23.747Z,11.40
2018-05-15T04:30:51.231Z,11.10
2018-05-15T04:33:18.759Z,11.00
2018-05-15T04:35:46.305Z,11.20
2018-05-15T04:38:13.838Z,11.10
2018-05-15T04:40:42.155Z,11.10
2018-05-15T04:43:09.689Z,11.10
2018-05-15T04:45:37.983Z,11.20
2018-05-15T04:48:05.545Z,11.20
2018-05-15T04:50:33.094Z,11.20
2018-05-15T04:53:00.671Z,11.20
2018-05-15T04:55:28.191Z,11.20
2018-05-15T04:57:56.485Z,11.20
2018-05-15T05:00:24.006Z,11.20
2018-05-15T05:02:51.863Z,11.20
2018-05-15T05:05:19.447Z,11.30
2018-05-15T05:07:47.746Z,11.30
2018-05-15T05:10:15.309Z,11.20
2018-05-15T05:12:42.863Z,11.30
2018-05-15T05:15:10.415Z,11.20
2018-05-15T05:17:37.987Z,11.20
2018-05-15T05:20:05.557Z,11.50
2018-05-15T05:22:33.134Z,11.50
2018-05-15T05:25:00.685Z,11.80
2018-05-15T05:27:28.233Z,11.80
2018-05-15T05:29:55.760Z,12.00
2018-05-15T05:32:23.286Z,12.00
2018-05-15T05:34:50.856Z,12.00
2018-05-15T05:37:18.412Z,12.10
2018-05-15T05:39:46.722Z,12.00
2018-05-15T05:42:14.254Z,12.00
2018-05-15T05:44:42.624Z,12.00
2018-05-15T05:47:10.914Z,12.00
2018-05-15T05:49:39.197Z,12.10
2018-05-15T05:52:07.537Z,12.10
2018-05-15T05:54:35.062Z,12.10
2018-05-15T05:57:02.627Z,12.20
2018-05-15T05:59:30.154Z,12.30
2018-05-15T06:01:57.694Z,12.40
2018-05-15T06:04:26.003Z,12.60
2018-05-15T06:06:53.560Z,12.60
2018-05-15T06:09:21.081Z,12.70
2018-05-15T06:11:48.638Z,12.80
2018-05-15T06:14:16.170Z,12.90
2018-05-15T06:16:43.728Z,12.90
2018-05-15T06:19:11.279Z,13.00
2018-05-15T06:21:38.826Z,13.10
2018-05-15T06:24:07.122Z,13.20
2018-05-15T06:26:34.650Z,13.10
2018-05-15T06:29:02.184Z,13.20
2018-05-15T06:31:30.469Z,13.40
2018-05-15T06:33:58.746Z,13.40
2018-05-15T06:36:27.022Z,13.50
2018-05-15T06:38:55.306Z,13.60
2018-05-15T06:41:23.616Z,13.60
2018-05-15T06:43:52.666Z,13.70
2018-05-15T06:46:20.956Z,13.80
2018-05-15T06:48:48.776Z,13.80
2018-05-15T06:51:16.310Z,13.90
2018-05-15T06:53:43.826Z,14.00
2018-05-15T06:56:11.377Z,14.20
2018-05-15T06:58:39.703Z,14.60
2018-05-15T07:01:07.224Z,14.50
2018-05-15T07:03:34.780Z,14.70
2018-05-15T07:06:02.324Z,14.90
2018-05-15T07:08:29.849Z,15.00
2018-05-15T07:10:57.382Z,15.10
2018-05-15T07:13:24.944Z,15.30
2018-05-15T07:15:52.469Z,15.40
2018-05-15T07:18:20.777Z,15.70
2018-05-15T07:20:48.313Z,15.70
2018-05-15T07:23:15.828Z,15.80
2018-05-15T07:25:43.343Z,15.90
2018-05-15T07:28:10.864Z,15.90
2018-05-15T07:30:38.385Z,15.90
2018-05-15T07:33:05.968Z,16.10
2018-05-15T07:35:33.528Z,16.30
2018-05-15T07:38:01.049Z,16.50
2018-05-15T07:40:28.632Z,16.60
2018-05-15T07:42:56.217Z,16.90
2018-05-15T07:45:23.752Z,17.30
2018-05-15T07:47:51.311Z,17.60
2018-05-15T07:50:18.873Z,17.80
2018-05-15T07:52:47.191Z,18.20
2018-05-15T07:55:14.726Z,18.20
2018-05-15T07:57:42.249Z,18.30
2018-05-15T08:00:09.761Z,18.50
2018-05-15T08:02:38.032Z,19.00
2018-05-15T08:05:06.347Z,19.30
2018-05-15T08:07:33.956Z,19.30
2018-05-15T08:10:01.508Z,19.40
2018-05-15T08:12:29.055Z,19.70
2018-05-15T08:14:56.596Z,20.00
2018-05-15T08:17:24.182Z,20.10
2018-05-15T08:19:51.724Z,19.90
2018-05-15T08:22:19.267Z,20.00
2018-05-15T08:24:46.780Z,19.40
2018-05-15T08:27:15.099Z,19.20
2018-05-15T08:29:42.619Z,19.10
2018-05-15T08:32:10.165Z,19.30
2018-05-15T08:34:37.679Z,19.40
2018-05-15T08:37:05.217Z,19.30
2018-05-15T08:39:32.766Z,19.40
2018-05-15T08:42:00.311Z,19.80
2018-05-15T08:44:27.852Z,19.90
2018-05-15T08:46:55.363Z,20.20
2018-05-15T08:49:22.907Z,20.20
2018-05-15T08:51:50.421Z,20.50
2018-05-15T08:54:17.970Z,20.30
2018-05-15T08:56:45.515Z,20.20
2018-05-15T08:59:13.072Z,20.00
2018-05-15T09:01:40.626Z,20.30
2018-05-15T09:04:08.143Z,20.60
2018-05-15T09:06:36.457Z,20.30
2018-05-15T09:09:03.994Z,20.30
2018-05-15T09:11:31.502Z,20.70
2018-05-15T09:13:59.014Z,20.50
2018-05-15T09:16:26.559Z,20.20
2018-05-15T09:18:54.070Z,20.40
2018-05-15T09:21:21.586Z,20.70
2018-05-15T09:23:49.105Z,20.80
2018-05-15T09:26:16.622Z,21.10
2018-05-15T09:28:44.179Z,20.90
2018-05-15T09:31:11.699Z,21.00
2018-05-15T09:33:39.242Z,21.20
2018-05-15T09:36:06.798Z,21.10
2018-05-15T09:38:34.307Z,21.40
2018-05-15T09:41:01.822Z,21.60
2018-05-15T09:43:34.919Z,21.50
2018-05-15T09:46:02.470Z,21.20
2018-05-15T09:48:30.769Z,21.50
2018-05-15T09:50:58.291Z,21.50
2018-05-15T09:53:25.812Z,21.70
2018-05-15T09:55:53.352Z,21.80
2018-05-15T09:58:20.895Z,22.30
2018-05-15T10:00:48.415Z,22.00
2018-05-15T10:03:15.933Z,21.70
2018-05-15T10:05:43.472Z,22.10
2018-05-15T10:08:11.194Z,22.10
2018-05-15T10:10:38.569Z,22.30
2018-05-15T10:13:06.103Z,22.40
2018-05-15T10:15:33.668Z,22.60
2018-05-15T10:18:01.193Z,22.40
2018-05-15T10:20:28.736Z,21.90
2018-05-15T10:22:56.289Z,22.20
2018-05-15T10:25:23.821Z,22.40
2018-05-15T10:27:51.576Z,22.50
2018-05-15T10:30:19.112Z,22.40
2018-05-15T10:32:46.685Z,21.80
2018-05-15T10:35:15.039Z,21.30
2018-05-15T10:37:42.723Z,21.30
2018-05-15T10:40:10.377Z,21.30
2018-05-15T10:42:38.007Z,21.50
2018-05-15T10:45:05.693Z,22.00
2018-05-15T10:47:34.047Z,22.30
2018-05-15T10:50:01.601Z,22.30
2018-05-15T10:52:29.138Z,22.50
2018-05-15T10:54:57.463Z,22.30
2018-05-15T10:57:25.045Z,22.30
2018-05-15T10:59:52.618Z,22.10
2018-05-15T11:02:20.154Z,21.80
2018-05-15T11:04:47.698Z,21.20
2018-05-15T11:07:15.244Z,21.50
2018-05-15T11:09:42.759Z,21.30
2018-05-15T11:12:11.073Z,21.00
2018-05-15T11:14:38.617Z,21.00
2018-05-15T11:17:06.169Z,21.30
2018-05-15T11:19:45.309Z,21.20
2018-05-15T11:22:33.642Z,21.10
2018-05-15T11:25:01.922Z,20.40
2018-05-15T11:27:30.248Z,20.40
2018-05-15T11:29:57.791Z,20.40
2018-05-15T11:32:25.306Z,21.00
2018-05-15T11:34:53.610Z,20.90
2018-05-15T11:37:21.116Z,20.90
2018-05-15T11:39:48.640Z,21.30
2018-05-15T11:42:16.183Z,21.40
2018-05-15T11:44:43.694Z,21.30
2018-05-15T11:47:11.254Z,21.20
2018-05-15T11:49:39.410Z,21.70
2018-05-15T11:52:07.079Z,22.10
2018-05-15T11:54:34.671Z,22.10
2018-05-15T11:57:02.959Z,22.00
2018-05-15T11:59:31.262Z,22.00
2018-05-15T12:01:59.727Z,22.00
2018-05-15T12:04:27.785Z,22.50
2018-05-15T12:06:55.416Z,22.80
2018-05-15T12:09:22.958Z,22.90
2018-05-15T12:11:50.545Z,22.60
2018-05-15T12:14:18.834Z,21.90
2018-05-15T12:16:47.148Z,21.80
2018-05-15T12:19:14.691Z,21.80
2018-05-15T12:21:42.242Z,21.60
2018-05-15T12:24:09.780Z,21.40
2018-05-15T12:26:37.363Z,21.20
2018-05-15T12:29:04.880Z,21.40
2018-05-15T12:31:32.448Z,22.00
2018-05-15T12:34:00.855Z,22.30
2018-05-15T12:36:29.181Z,22.40
2018-05-15T12:38:56.730Z,22.30
2018-05-15T12:41:24.380Z,22.00
2018-05-15T12:43:51.841Z,21.70
2018-05-15T12:46:19.359Z,21.80
2018-05-15T12:48:47.665Z,21.40
2018-05-15T12:51:15.207Z,21.40
2018-05-15T12:53:42.735Z,21.20
2018-05-15T12:56:10.256Z,21.00
2018-05-15T12:58:37.780Z,20.90
2018-05-15T13:01:05.291Z,21.40
2018-05-15T13:03:33.629Z,21.70
2018-05-15T13:06:02.032Z,21.90
2018-05-15T13:08:29.550Z,21.70
2018-05-15T13:10:57.878Z,21.70
2018-05-15T13:13:25.403Z,21.60
2018-05-15T13:15:52.935Z,21.80
2018-05-15T13:18:21.293Z,21.40
2018-05-15T13:20:48.782Z,21.40
2018-05-15T13:23:16.307Z,21.30
2018-05-15T13:25:43.819Z,21.30
2018-05-15T13:28:11.397Z,21.30
2018-05-15T13:30:38.951Z,21.30
2018-05-15T13:33:06.497Z,21.20
2018-05-15T13:35:34.071Z,21.10
2018-05-15T13:38:01.619Z,21.30
2018-05-15T13:40:29.164Z,21.70
2018-05-15T13:42:56.699Z,22.20
2018-05-15T13:45:24.283Z,22.30
2018-05-15T13:47:52.889Z,22.40
2018-05-15T13:50:20.459Z,22.40
2018-05-15T13:52:48.023Z,22.30
2018-05-15T13:55:15.573Z,22.20
2018-05-15T13:57:43.118Z,21.90
2018-05-15T14:00:10.672Z,21.90
2018-05-15T14:02:38.208Z,21.70
2018-05-15T14:05:05.736Z,21.70
2018-05-15T14:07:33.281Z,21.60
2018-05-15T14:10:00.809Z,21.30
2018-05-15T14:12:28.468Z,21.20
2018-05-15T14:14:55.926Z,21.10
2018-05-15T14:17:23.435Z,21.00
2018-05-15T14:19:51.744Z,20.80
2018-05-15T14:22:19.270Z,20.80
2018-05-15T14:24:46.851Z,20.80
2018-05-15T14:27:14.373Z,21.00
2018-05-15T14:29:41.903Z,21.10
2018-05-15T14:32:09.457Z,21.40
2018-05-15T14:34:36.985Z,21.60
2018-05-15T14:37:04.521Z,21.60
2018-05-15T14:39:32.041Z,21.70
2018-05-15T14:42:11.418Z,21.70
2018-05-15T14:44:38.933Z,21.70
2018-05-15T14:47:06.482Z,21.80
2018-05-15T14:49:34.037Z,21.90
2018-05-15T14:52:01.847Z,22.10
2018-05-15T14:54:29.597Z,22.10
2018-05-15T14:56:57.381Z,22.20
2018-05-15T14:59:25.133Z,21.90
2018-05-15T15:01:52.680Z,21.60
2018-05-15T15:04:20.199Z,21.70
2018-05-15T15:06:47.767Z,21.90
2018-05-15T15:09:15.255Z,21.90
2018-05-15T15:11:42.807Z,22.00
2018-05-15T15:14:10.317Z,21.90
2018-05-15T15:16:37.850Z,21.90
2018-05-15T15:19:05.713Z,22.20
2018-05-15T15:21:33.785Z,22.00
2018-05-15T15:24:01.330Z,22.00
2018-05-15T15:26:28.872Z,21.70
2018-05-15T15:28:56.382Z,21.50
2018-05-15T15:31:25.453Z,21.10
2018-05-15T15:33:53.003Z,21.10
2018-05-15T15:36:20.549Z,21.10
2018-05-15T15:38:48.358Z,21.10
2018-05-15T15:41:15.716Z,21.10
2018-05-15T15:43:43.272Z,21.10
2018-05-15T15:46:10.836Z,21.10
2018-05-15T15:48:38.376Z,21.20
2018-05-15T15:51:05.990Z,21.20
2018-05-15T15:53:33.562Z,21.30
2018-05-15T15:56:01.076Z,21.20
2018-05-15T15:58:28.611Z,21.00
2018-05-15T16:00:57.067Z,20.70
2018-05-15T16:03:24.628Z,20.60
2018-05-15T16:05:52.153Z,20.30
2018-05-15T16:08:19.711Z,20.10
2018-05-15T16:10:48.040Z,19.70
2018-05-15T16:13:15.669Z,19.60
2018-05-15T16:15:43.534Z,19.30
2018-05-15T16:18:11.613Z,19.00
2018-05-15T16:20:39.184Z,18.90
2018-05-15T16:23:06.727Z,18.80
2018-05-15T16:25:34.239Z,18.80
2018-05-15T16:28:01.781Z,18.70
2018-05-15T16:30:29.302Z,18.80
2018-05-15T16:32:57.587Z,18.90
2018-05-15T16:35:25.134Z,18.90
2018-05-15T16:37:52.739Z,18.90
2018-05-15T16:40:20.320Z,18.90
2018-05-15T16:42:48.626Z,19.00
2018-05-15T16:45:16.943Z,19.00
2018-05-15T16:47:44.473Z,19.00
2018-05-15T16:50:12.008Z,19.10
2018-05-15T16:52:40.353Z,19.20
2018-05-15T16:55:07.835Z,19.20
2018-05-15T16:57:35.359Z,19.10
2018-05-15T17:00:02.912Z,19.10
2018-05-15T17:02:30.478Z,19.20
2018-05-15T17:04:58.025Z,19.20
2018-05-15T17:07:25.664Z,19.10
2018-05-15T17:09:53.231Z,19.20
2018-05-15T17:12:20.791Z,19.00
2018-05-15T17:14:48.310Z,18.90
2018-05-15T17:17:15.860Z,18.90
2018-05-15T17:19:43.406Z,18.80
2018-05-15T17:22:10.943Z,18.70
2018-05-15T17:24:38.592Z,18.50
2018-05-15T17:27:06.211Z,18.20
2018-05-15T17:29:34.583Z,17.70
2018-05-15T17:32:02.406Z,17.70
2018-05-15T17:34:30.025Z,17.40
2018-05-15T17:36:57.579Z,17.30
2018-05-15T17:39:25.900Z,17.00
2018-05-15T17:41:53.456Z,17.00
2018-05-15T17:44:21.019Z,16.70
2018-05-15T17:46:48.546Z,16.40
2018-05-15T17:49:16.063Z,16.20
2018-05-15T17:51:43.632Z,15.90
2018-05-15T17:54:11.243Z,15.60
2018-05-15T17:56:38.791Z,15.40
2018-05-15T17:59:07.107Z,15.20
2018-05-15T18:01:34.654Z,15.10
2018-05-15T18:04:02.214Z,15.10
2018-05-15T18:06:30.381Z,15.20
2018-05-15T18:08:58.713Z,15.10
2018-05-15T18:11:26.262Z,15.10
2018-05-15T18:13:53.816Z,15.10
2018-05-15T18:16:21.390Z,15.10
2018-05-15T18:18:48.979Z,15.10
2018-05-15T18:21:16.601Z,15.20
2018-05-15T18:23:44.204Z,15.10
2018-05-15T18:26:11.775Z,15.10
2018-05-15T18:28:40.110Z,14.80
2018-05-15T18:31:07.643Z,14.90
2018-05-15T18:33:35.240Z,14.70
2018-05-15T18:36:02.760Z,14.70
2018-05-15T18:38:30.299Z,14.60
2018-05-15T18:40:57.853Z,14.70
2018-05-15T18:43:25.421Z,14.60
2018-05-15T18:45:52.976Z,14.60
2018-05-15T18:48:20.653Z,14.70
2018-05-15T18:50:48.190Z,14.60
2018-05-15T18:53:15.801Z,14.60
2018-05-15T18:55:43.380Z,14.60
2018-05-15T18:58:10.896Z,14.60
2018-05-15T19:00:38.429Z,14.50
2018-05-15T19:03:05.958Z,14.30
2018-05-15T19:05:33.563Z,14.20
2018-05-15T19:08:01.085Z,14.20
2018-05-15T19:10:29.424Z,14.20
2018-05-15T19:12:56.983Z,14.20
2018-05-15T19:15:24.571Z,14.20
2018-05-15T19:17:52.174Z,14.10
2018-05-15T19:20:19.714Z,14.20
2018-05-15T19:22:47.256Z,14.30
2018-05-15T19:25:14.820Z,14.40
2018-05-15T19:27:43.161Z,14.10
2018-05-15T19:30:10.722Z,14.10
2018-05-15T19:32:39.218Z,13.80
2018-05-15T19:35:07.660Z,14.00
2018-05-15T19:37:35.237Z,14.10
2018-05-15T19:40:08.489Z,14.10
2018-05-15T19:42:36.061Z,14.20
2018-05-15T19:45:03.686Z,14.10
2018-05-15T19:47:31.213Z,14.00
2018-05-15T19:49:58.764Z,13.80
2018-05-15T19:52:26.358Z,13.80
2018-05-15T19:54:53.887Z,13.80
2018-05-15T19:57:21.506Z,13.90
2018-05-15T19:59:49.056Z,14.00
2018-05-15T20:02:16.612Z,13.90
2018-05-15T20:04:44.907Z,13.80
2018-05-15T20:07:12.479Z,13.80
2018-05-15T20:09:40.019Z,13.80
2018-05-15T20:12:07.572Z,13.70
2018-05-15T20:14:35.858Z,13.80
2018-05-15T20:17:03.424Z,13.80
2018-05-15T20:19:31.269Z,13.80
2018-05-15T20:21:58.905Z,13.70
2018-05-15T20:24:27.246Z,13.60
2018-05-15T20:26:54.810Z,13.50
2018-05-15T20:29:22.498Z,13.50
2018-05-15T20:31:50.033Z,13.40
2018-05-15T20:34:17.570Z,13.50
2018-05-15T20:36:45.125Z,13.40
2018-05-15T20:39:12.653Z,13.40
2018-05-15T20:41:40.204Z,13.50
2018-05-15T20:44:07.759Z,13.40
2018-05-15T20:46:36.160Z,13.40
2018-05-15T20:49:04.452Z,13.70
2018-05-15T20:51:32.016Z,13.70
2018-05-15T20:53:59.562Z,13.70
2018-05-15T20:56:27.874Z,13.10
2018-05-15T20:58:55.397Z,13.10
2018-05-15T21:01:23.000Z,13.10
2018-05-15T21:03:50.530Z,13.20
2018-05-15T21:06:18.080Z,13.20
2018-05-15T21:08:45.637Z,13.20
2018-05-15T21:11:13.160Z,13.20
2018-05-15T21:13:40.708Z,13.30
2018-05-15T21:16:08.243Z,13.10
2018-05-15T21:18:36.540Z,12.80
2018-05-15T21:21:04.090Z,12.80
2018-05-15T21:23:31.614Z,12.90
2018-05-15T21:25:59.131Z,12.90
2018-05-15T21:28:27.456Z,13.10
2018-05-15T21:30:54.975Z,13.10
2018-05-15T21:33:22.504Z,13.10
2018-05-15T21:35:50.056Z,13.10
2018-05-15T21:38:17.580Z,13.20
2018-05-15T21:40:45.107Z,13.30
2018-05-15T21:43:12.652Z,13.30
2018-05-15T21:45:40.329Z,13.10
2018-05-15T21:48:07.800Z,13.40
2018-05-15T21:50:35.330Z,13.40
2018-05-15T21:53:02.861Z,13.30
2018-05-15T21:55:30.395Z,13.40
2018-05-15T21:57:57.933Z,13.30
2018-05-15T22:00:26.213Z,13.20
2018-05-15T22:02:54.489Z,13.20
2018-05-15T22:05:22.791Z,13.20
2018-05-15T22:07:50.332Z,13.10
2018-05-15T22:10:17.860Z,13.20
2018-05-15T22:12:57.252Z,13.00
2018-05-15T22:15:36.846Z,12.90
2018-05-15T22:18:16.056Z,13.00
2018-05-15T22:20:55.316Z,13.00
2018-05-15T22:23:34.478Z,13.10
2018-05-15T22:26:01.987Z,13.00
2018-05-15T22:28:29.507Z,13.00
2018-05-15T22:30:57.067Z,13.00
2018-05-15T22:33:24.639Z,12.90
2018-05-15T22:35:52.169Z,12.90
2018-05-15T22:38:19.689Z,12.90
2018-05-15T22:40:47.217Z,12.90
2018-05-15T22:43:14.772Z,12.90
2018-05-15T22:45:42.315Z,12.90
2018-05-15T22:48:09.838Z,13.00
2018-05-15T22:50:38.145Z,13.10
2018-05-15T22:53:05.667Z,13.10
2018-05-15T22:55:34.869Z,13.00
2018-05-15T22:58:02.428Z,13.00
2018-05-15T23:00:30.755Z,12.90
2018-05-15T23:02:58.307Z,12.80
2018-05-15T23:05:25.846Z,12.90
2018-05-15T23:07:53.366Z,12.90
2018-05-15T23:10:20.875Z,12.90
2018-05-15T23:12:48.398Z,13.00
2018-05-15T23:15:16.714Z,12.70
2018-05-15T23:17:44.231Z,12.70
2018-05-15T23:20:11.778Z,12.60
2018-05-15T23:22:42.135Z,12.60
2018-05-15T23:25:09.677Z,12.60
2018-05-15T23:27:37.207Z,12.70
2018-05-15T23:30:04.730Z,12.60
2018-05-15T23:32:32.294Z,12.80
2018-05-15T23:34:59.852Z,12.80
2018-05-15T23:37:27.373Z,12.80
2018-05-15T23:39:55.690Z,12.80
2018-05-15T23:42:24.009Z,12.80
2018-05-15T23:44:52.298Z,12.80
2018-05-15T23:47:20.611Z,12.80
2018-05-15T23:49:48.164Z,12.80
2018-05-15T23:52:16.446Z,12.70
2018-05-15T23:54:43.965Z,12.60
2018-05-15T23:57:12.273Z,12.80
2018-05-15T23:59:39.801Z,12.70
